Miami, Florida
Traffic Map
Current Weather Conditions
Miami, Florida
Broken Clouds
Broken Clouds
90°
Feels Like: 99°
Wind Chill: 90° Ceiling: 30000
Heat Index: 99° Visibility: 10mi
Dew Point: 74° Wind: 12mph
Humidity: 59% Direction: 160° (SSE)
Pressure: 30.04in Gusts: 0mph
Raw Report DataKMIA 311453Z 16010KT 10SM SCT030 SCT070 SCT200 BKN300 32/23 A3004 RMK AO2 SLP174 T03220233 51006
Traffic Incident Summary
Active as of:
Severity:
Category:
InformationThere was an issue retrieving the traffic information for this location. Please try a different location or try again shortly.
Advertisements
Track Severe Weather on mobile